sensor_id;sensor_type;location;lat;lon;timestamp;pressure;altitude;pressure_sealevel;temperature;humidity
54172;BME280;40076;52.354;4.970;2022-10-31T00:00:22;102060.50;;;14.29;98.46
54172;BME280;40076;52.354;4.970;2022-10-31T00:02:48;102066.75;;;14.29;98.41
54172;BME280;40076;52.354;4.970;2022-10-31T00:05:13;102064.69;;;14.26;98.60
54172;BME280;40076;52.354;4.970;2022-10-31T00:07:39;102069.31;;;14.26;98.59
54172;BME280;40076;52.354;4.970;2022-10-31T00:10:07;102064.50;;;14.23;98.65
54172;BME280;40076;52.354;4.970;2022-10-31T00:12:33;102066.41;;;14.22;98.57
54172;BME280;40076;52.354;4.970;2022-10-31T00:14:58;102063.19;;;14.20;98.75
54172;BME280;40076;52.354;4.970;2022-10-31T00:17:24;102067.03;;;14.19;98.84
54172;BME280;40076;52.354;4.970;2022-10-31T00:19:49;102062.22;;;14.16;99.08
54172;BME280;40076;52.354;4.970;2022-10-31T00:22:14;102069.88;;;14.14;99.07
54172;BME280;40076;52.354;4.970;2022-10-31T00:24:39;102072.59;;;14.14;99.20
54172;BME280;40076;52.354;4.970;2022-10-31T00:27:05;102074.53;;;14.14;99.46
54172;BME280;40076;52.354;4.970;2022-10-31T00:29:30;102071.81;;;14.14;99.53
54172;BME280;40076;52.354;4.970;2022-10-31T00:31:56;102076.75;;;14.12;99.60
54172;BME280;40076;52.354;4.970;2022-10-31T00:34:21;102072.44;;;14.11;99.51
54172;BME280;40076;52.354;4.970;2022-10-31T00:36:46;102073.56;;;14.10;99.74
54172;BME280;40076;52.354;4.970;2022-10-31T00:39:11;102073.38;;;14.06;99.78
54172;BME280;40076;52.354;4.970;2022-10-31T00:41:37;102081.81;;;14.05;99.87
54172;BME280;40076;52.354;4.970;2022-10-31T00:44:02;102066.16;;;14.02;99.84
54172;BME280;40076;52.354;4.970;2022-10-31T00:46:27;102071.59;;;14.02;100.00
54172;BME280;40076;52.354;4.970;2022-10-31T00:48:53;102064.56;;;14.01;100.00
54172;BME280;40076;52.354;4.970;2022-10-31T00:51:19;102064.06;;;13.99;100.00
54172;BME280;40076;52.354;4.970;2022-10-31T00:53:44;102067.06;;;13.97;100.00
54172;BME280;40076;52.354;4.970;2022-10-31T00:56:10;102073.94;;;13.95;100.00
54172;BME280;40076;52.354;4.970;2022-10-31T00:58:35;102075.88;;;13.94;100.00
54172;BME280;40076;52.354;4.970;2022-10-31T01:01:00;102068.81;;;13.93;100.00
54172;BME280;40076;52.354;4.970;2022-10-31T01:03:28;102070.44;;;13.94;100.00
54172;BME280;40076;52.354;4.970;2022-10-31T01:08:22;102086.75;;;13.94;100.00
54172;BME280;40076;52.354;4.970;2022-10-31T01:11:01;102084.63;;;13.91;100.00
54172;BME280;40076;52.354;4.970;2022-10-31T01:13:27;102082.72;;;13.91;100.00
54172;BME280;40076;52.354;4.970;2022-10-31T01:15:56;102081.41;;;13.89;100.00
54172;BME280;40076;52.354;4.970;2022-10-31T01:18:21;102070.06;;;13.87;100.00
54172;BME280;40076;52.354;4.970;2022-10-31T01:20:47;102074.41;;;13.88;100.00
54172;BME280;40076;52.354;4.970;2022-10-31T01:23:21;102076.63;;;13.86;100.00
54172;BME280;40076;52.354;4.970;2022-10-31T01:25:46;102075.31;;;13.83;100.00
54172;BME280;40076;52.354;4.970;2022-10-31T01:28:11;102072.09;;;13.81;100.00
54172;BME280;40076;52.354;4.970;2022-10-31T01:30:37;102068.56;;;13.81;100.00
54172;BME280;40076;52.354;4.970;2022-10-31T01:33:02;102064.59;;;13.78;100.00
54172;BME280;40076;52.354;4.970;2022-10-31T01:35:28;102050.50;;;13.76;100.00
54172;BME280;40076;52.354;4.970;2022-10-31T01:37:53;102051.31;;;13.77;100.00
54172;BME280;40076;52.354;4.970;2022-10-31T01:40:18;102054.31;;;13.75;100.00
54172;BME280;40076;52.354;4.970;2022-10-31T01:42:44;102065.50;;;13.74;100.00
54172;BME280;40076;52.354;4.970;2022-10-31T01:45:09;102060.69;;;13.71;100.00
54172;BME280;40076;52.354;4.970;2022-10-31T01:47:42;102062.63;;;13.70;100.00
54172;BME280;40076;52.354;4.970;2022-10-31T01:50:14;102049.63;;;13.67;100.00
54172;BME280;40076;52.354;4.970;2022-10-31T01:52:46;102047.56;;;13.64;100.00
54172;BME280;40076;52.354;4.970;2022-10-31T01:55:21;102048.66;;;13.63;100.00
54172;BME280;40076;52.354;4.970;2022-10-31T01:57:51;102043.84;;;13.60;100.00
54172;BME280;40076;52.354;4.970;2022-10-31T02:00:19;102046.56;;;13.60;100.00
54172;BME280;40076;52.354;4.970;2022-10-31T02:02:45;102046.88;;;13.59;100.00
54172;BME280;40076;52.354;4.970;2022-10-31T02:05:17;102050.22;;;13.56;100.00
54172;BME280;40076;52.354;4.970;2022-10-31T02:07:51;102052.13;;;13.55;100.00
54172;BME280;40076;52.354;4.970;2022-10-31T02:10:19;102054.63;;;13.51;100.00
54172;BME280;40076;52.354;4.970;2022-10-31T02:12:47;102055.75;;;13.50;100.00
54172;BME280;40076;52.354;4.970;2022-10-31T02:15:12;102050.66;;;13.49;100.00
54172;BME280;40076;52.354;4.970;2022-10-31T02:17:37;102046.63;;;13.46;100.00
54172;BME280;40076;52.354;4.970;2022-10-31T02:20:16;102046.13;;;13.44;100.00
54172;BME280;40076;52.354;4.970;2022-10-31T02:23:53;102047.56;;;13.42;100.00
54172;BME280;40076;52.354;4.970;2022-10-31T02:26:20;102038.91;;;13.40;100.00
54172;BME280;40076;52.354;4.970;2022-10-31T02:29:10;102037.91;;;13.36;100.00
54172;BME280;40076;52.354;4.970;2022-10-31T02:32:10;102045.59;;;13.34;100.00
54172;BME280;40076;52.354;4.970;2022-10-31T02:37:13;102046.78;;;13.28;100.00
54172;BME280;40076;52.354;4.970;2022-10-31T02:48:09;102053.56;;;13.17;100.00
54172;BME280;40076;52.354;4.970;2022-10-31T02:50:39;102047.66;;;13.14;100.00
54172;BME280;40076;52.354;4.970;2022-10-31T02:53:06;102054.19;;;13.13;100.00
54172;BME280;40076;52.354;4.970;2022-10-31T02:58:07;102043.41;;;13.08;100.00
54172;BME280;40076;52.354;4.970;2022-10-31T03:03:27;102052.50;;;13.04;100.00
54172;BME280;40076;52.354;4.970;2022-10-31T03:08:37;102048.75;;;13.00;100.00
54172;BME280;40076;52.354;4.970;2022-10-31T03:11:08;102049.06;;;12.98;100.00
54172;BME280;40076;52.354;4.970;2022-10-31T03:14:16;102052.88;;;12.97;100.00
54172;BME280;40076;52.354;4.970;2022-10-31T03:16:48;102055.41;;;12.94;100.00
54172;BME280;40076;52.354;4.970;2022-10-31T03:19:33;102062.75;;;12.93;100.00
54172;BME280;40076;52.354;4.970;2022-10-31T03:22:17;102055.72;;;12.92;100.00
54172;BME280;40076;52.354;4.970;2022-10-31T03:24:43;102063.84;;;12.92;100.00
54172;BME280;40076;52.354;4.970;2022-10-31T03:27:11;102055.22;;;12.90;100.00
54172;BME280;40076;52.354;4.970;2022-10-31T03:29:40;102050.13;;;12.89;100.00
54172;BME280;40076;52.354;4.970;2022-10-31T03:32:28;102048.78;;;12.86;100.00
54172;BME280;40076;52.354;4.970;2022-10-31T03:34:57;102051.81;;;12.85;100.00
54172;BME280;40076;52.354;4.970;2022-10-31T03:37:27;102053.53;;;12.81;100.00
54172;BME280;40076;52.354;4.970;2022-10-31T03:39:55;102049.69;;;12.82;100.00
54172;BME280;40076;52.354;4.970;2022-10-31T03:42:25;102051.13;;;12.79;100.00
54172;BME280;40076;52.354;4.970;2022-10-31T03:44:57;102056.03;;;12.77;100.00
54172;BME280;40076;52.354;4.970;2022-10-31T03:47:24;102053.03;;;12.79;100.00
54172;BME280;40076;52.354;4.970;2022-10-31T03:49:50;102060.47;;;12.73;100.00
54172;BME280;40076;52.354;4.970;2022-10-31T03:52:24;102059.16;;;12.70;100.00
54172;BME280;40076;52.354;4.970;2022-10-31T03:54:58;102064.09;;;12.68;100.00
54172;BME280;40076;52.354;4.970;2022-10-31T03:57:38;102059.75;;;12.67;100.00
54172;BME280;40076;52.354;4.970;2022-10-31T04:00:09;102058.94;;;12.67;100.00
54172;BME280;40076;52.354;4.970;2022-10-31T04:02:39;102058.47;;;12.65;100.00
54172;BME280;40076;52.354;4.970;2022-10-31T04:05:06;102061.47;;;12.63;100.00
54172;BME280;40076;52.354;4.970;2022-10-31T04:07:37;102058.25;;;12.61;100.00
54172;BME280;40076;52.354;4.970;2022-10-31T04:10:07;102057.75;;;12.59;100.00
54172;BME280;40076;52.354;4.970;2022-10-31T04:12:34;102057.28;;;12.57;100.00
54172;BME280;40076;52.354;4.970;2022-10-31T04:15:03;102061.09;;;12.56;100.00
54172;BME280;40076;52.354;4.970;2022-10-31T04:17:33;102059.47;;;12.55;100.00
54172;BME280;40076;52.354;4.970;2022-10-31T04:20:00;102063.28;;;12.54;100.00
54172;BME280;40076;52.354;4.970;2022-10-31T04:22:26;102068.72;;;12.54;100.00
54172;BME280;40076;52.354;4.970;2022-10-31T04:24:51;102058.16;;;12.53;100.00
54172;BME280;40076;52.354;4.970;2022-10-31T04:27:16;102055.44;;;12.53;100.00
54172;BME280;40076;52.354;4.970;2022-10-31T04:29:42;102059.25;;;12.52;100.00
54172;BME280;40076;52.354;4.970;2022-10-31T04:32:07;102059.59;;;12.50;100.00
54172;BME280;40076;52.354;4.970;2022-10-31T04:34:32;102059.88;;;12.49;100.00
54172;BME280;40076;52.354;4.970;2022-10-31T04:36:58;102065.59;;;12.47;100.00
54172;BME280;40076;52.354;4.970;2022-10-31T04:39:23;102069.13;;;12.48;100.00
54172;BME280;40076;52.354;4.970;2022-10-31T04:41:49;102055.84;;;12.46;100.00
54172;BME280;40076;52.354;4.970;2022-10-31T04:44:14;102065.38;;;12.44;100.00
54172;BME280;40076;52.354;4.970;2022-10-31T04:46:40;102068.09;;;12.44;100.00
54172;BME280;40076;52.354;4.970;2022-10-31T04:49:05;102063.81;;;12.43;100.00
54172;BME280;40076;52.354;4.970;2022-10-31T04:51:30;102068.41;;;12.42;100.00
54172;BME280;40076;52.354;4.970;2022-10-31T04:53:56;102063.81;;;12.43;100.00
54172;BME280;40076;52.354;4.970;2022-10-31T04:56:21;102063.00;;;12.42;100.00
54172;BME280;40076;52.354;4.970;2022-10-31T04:58:46;102068.41;;;12.42;100.00
54172;BME280;40076;52.354;4.970;2022-10-31T05:01:12;102075.75;;;12.42;100.00
54172;BME280;40076;52.354;4.970;2022-10-31T05:03:37;102071.44;;;12.41;100.00
54172;BME280;40076;52.354;4.970;2022-10-31T05:06:05;102069.00;;;12.39;100.00
54172;BME280;40076;52.354;4.970;2022-10-31T05:08:30;102067.69;;;12.36;100.00
54172;BME280;40076;52.354;4.970;2022-10-31T05:10:59;102060.19;;;12.33;100.00
54172;BME280;40076;52.354;4.970;2022-10-31T05:13:24;102049.94;;;12.30;100.00
54172;BME280;40076;52.354;4.970;2022-10-31T05:15:50;102052.13;;;12.28;100.00
54172;BME280;40076;52.354;4.970;2022-10-31T05:18:15;102052.47;;;12.27;100.00
54172;BME280;40076;52.354;4.970;2022-10-31T05:20:41;102050.84;;;12.26;100.00
54172;BME280;40076;52.354;4.970;2022-10-31T05:23:06;102047.63;;;12.24;100.00
54172;BME280;40076;52.354;4.970;2022-10-31T05:25:31;102049.53;;;12.23;100.00
54172;BME280;40076;52.354;4.970;2022-10-31T05:27:57;102050.63;;;12.22;100.00
54172;BME280;40076;52.354;4.970;2022-10-31T05:30:27;102049.00;;;12.21;100.00
54172;BME280;40076;52.354;4.970;2022-10-31T05:32:53;102045.50;;;12.21;100.00
54172;BME280;40076;52.354;4.970;2022-10-31T05:35:22;102042.31;;;12.19;100.00
54172;BME280;40076;52.354;4.970;2022-10-31T05:37:47;102038.28;;;12.16;100.00
54172;BME280;40076;52.354;4.970;2022-10-31T05:40:14;102041.28;;;12.15;100.00
54172;BME280;40076;52.354;4.970;2022-10-31T05:42:41;102034.25;;;12.14;100.00
54172;BME280;40076;52.354;4.970;2022-10-31T05:45:12;102041.59;;;12.13;100.00
54172;BME280;40076;52.354;4.970;2022-10-31T05:47:38;102037.28;;;12.12;100.00
54172;BME280;40076;52.354;4.970;2022-10-31T05:50:04;102041.91;;;12.12;100.00
54172;BME280;40076;52.354;4.970;2022-10-31T05:52:29;102028.66;;;12.10;100.00
54172;BME280;40076;52.354;4.970;2022-10-31T05:54:55;102027.34;;;12.08;100.00
54172;BME280;40076;52.354;4.970;2022-10-31T05:57:20;102024.44;;;12.04;100.00
54172;BME280;40076;52.354;4.970;2022-10-31T05:59:46;102030.94;;;12.03;100.00
54172;BME280;40076;52.354;4.970;2022-10-31T06:02:11;102023.91;;;12.02;100.00
54172;BME280;40076;52.354;4.970;2022-10-31T06:04:36;102021.50;;;12.01;100.00
54172;BME280;40076;52.354;4.970;2022-10-31T06:07:02;102019.09;;;11.99;100.00
54172;BME280;40076;52.354;4.970;2022-10-31T06:09:27;102016.72;;;11.97;100.00
54172;BME280;40076;52.354;4.970;2022-10-31T06:11:52;102013.47;;;11.95;100.00
54172;BME280;40076;52.354;4.970;2022-10-31T06:14:18;102025.13;;;11.96;100.00
54172;BME280;40076;52.354;4.970;2022-10-31T06:16:43;102018.59;;;11.97;100.00
54172;BME280;40076;52.354;4.970;2022-10-31T06:19:09;102017.00;;;11.96;100.00
54172;BME280;40076;52.354;4.970;2022-10-31T06:21:34;102011.06;;;11.94;100.00
54172;BME280;40076;52.354;4.970;2022-10-31T06:23:59;102009.16;;;11.94;100.00
54172;BME280;40076;52.354;4.970;2022-10-31T06:26:25;102016.50;;;11.94;100.00
54172;BME280;40076;52.354;4.970;2022-10-31T06:28:50;102018.38;;;11.93;100.00
54172;BME280;40076;52.354;4.970;2022-10-31T06:31:15;102015.97;;;11.92;100.00
54172;BME280;40076;52.354;4.970;2022-10-31T06:33:47;102026.00;;;11.91;100.00
54172;BME280;40076;52.354;4.970;2022-10-31T06:36:16;102027.91;;;11.91;100.00
54172;BME280;40076;52.354;4.970;2022-10-31T06:38:48;102031.75;;;11.90;100.00
54172;BME280;40076;52.354;4.970;2022-10-31T06:41:21;102030.13;;;11.89;100.00
54172;BME280;40076;52.354;4.970;2022-10-31T06:43:47;102032.84;;;11.89;100.00
54172;BME280;40076;52.354;4.970;2022-10-31T06:46:16;102030.44;;;11.87;100.00
54172;BME280;40076;52.354;4.970;2022-10-31T06:48:41;102030.44;;;11.87;100.00
54172;BME280;40076;52.354;4.970;2022-10-31T06:51:19;102035.31;;;11.85;100.00
54172;BME280;40076;52.354;4.970;2022-10-31T06:53:51;102034.53;;;11.85;100.00
54172;BME280;40076;52.354;4.970;2022-10-31T06:56:16;102031.00;;;11.84;100.00
54172;BME280;40076;52.354;4.970;2022-10-31T06:58:42;102035.63;;;11.84;100.00
54172;BME280;40076;52.354;4.970;2022-10-31T07:01:07;102036.44;;;11.84;100.00
54172;BME280;40076;52.354;4.970;2022-10-31T07:03:33;102035.63;;;11.84;100.00
54172;BME280;40076;52.354;4.970;2022-10-31T07:05:58;102033.22;;;11.82;100.00
54172;BME280;40076;52.354;4.970;2022-10-31T07:08:24;102041.34;;;11.82;100.00
54172;BME280;40076;52.354;4.970;2022-10-31T07:10:52;102042.94;;;11.83;100.00
54172;BME280;40076;52.354;4.970;2022-10-31T07:13:18;102043.25;;;11.82;100.00
54172;BME280;40076;52.354;4.970;2022-10-31T07:15:43;102041.34;;;11.82;100.00
54172;BME280;40076;52.354;4.970;2022-10-31T07:18:10;102044.84;;;11.83;100.00
54172;BME280;40076;52.354;4.970;2022-10-31T07:20:36;102047.88;;;11.81;100.00
54172;BME280;40076;52.354;4.970;2022-10-31T07:23:02;102049.78;;;11.81;100.00
54172;BME280;40076;52.354;4.970;2022-10-31T07:25:28;102057.91;;;11.81;100.00
54172;BME280;40076;52.354;4.970;2022-10-31T07:27:54;102043.56;;;11.80;100.00
54172;BME280;40076;52.354;4.970;2022-10-31T07:30:20;102060.59;;;11.81;100.00
54172;BME280;40076;52.354;4.970;2022-10-31T07:32:47;102057.91;;;11.81;100.00
54172;BME280;40076;52.354;4.970;2022-10-31T07:35:17;102049.78;;;11.81;100.00
54172;BME280;40076;52.354;4.970;2022-10-31T07:37:43;102053.28;;;11.81;100.00
54172;BME280;40076;52.354;4.970;2022-10-31T07:40:09;102057.59;;;11.82;100.00
54172;BME280;40076;52.354;4.970;2022-10-31T07:42:40;102054.91;;;11.82;100.00
54172;BME280;40076;52.354;4.970;2022-10-31T07:45:08;102071.44;;;11.81;100.00
54172;BME280;40076;52.354;4.970;2022-10-31T07:47:45;102069.53;;;11.81;100.00
54172;BME280;40076;52.354;4.970;2022-10-31T07:50:20;102072.25;;;11.81;100.00
54172;BME280;40076;52.354;4.970;2022-10-31T07:52:46;102073.53;;;11.84;100.00
54172;BME280;40076;52.354;4.970;2022-10-31T07:55:12;102076.75;;;11.86;100.00
54172;BME280;40076;52.354;4.970;2022-10-31T07:57:37;102071.06;;;11.87;100.00
54172;BME280;40076;52.354;4.970;2022-10-31T08:00:07;102078.88;;;11.89;100.00
54172;BME280;40076;52.354;4.970;2022-10-31T08:02:33;102075.06;;;11.90;100.00
54172;BME280;40076;52.354;4.970;2022-10-31T08:04:59;102071.25;;;11.91;100.00
54172;BME280;40076;52.354;4.970;2022-10-31T08:07:25;102074.47;;;11.93;100.00
54172;BME280;40076;52.354;4.970;2022-10-31T08:09:51;102076.88;;;11.94;100.00
54172;BME280;40076;52.354;4.970;2022-10-31T08:12:16;102074.69;;;11.96;100.00
54172;BME280;40076;52.354;4.970;2022-10-31T08:14:42;102069.28;;;11.96;100.00
54172;BME280;40076;52.354;4.970;2022-10-31T08:17:07;102072.47;;;11.98;100.00
54172;BME280;40076;52.354;4.970;2022-10-31T08:19:33;102073.78;;;12.01;100.00
54172;BME280;40076;52.354;4.970;2022-10-31T08:21:58;102069.97;;;12.02;100.00
54172;BME280;40076;52.354;4.970;2022-10-31T08:24:24;102077.00;;;12.03;100.00
54172;BME280;40076;52.354;4.970;2022-10-31T08:26:49;102074.81;;;12.05;100.00
54172;BME280;40076;52.354;4.970;2022-10-31T08:29:15;102065.88;;;12.05;100.00
54172;BME280;40076;52.354;4.970;2022-10-31T08:31:42;102069.88;;;12.07;100.00
54172;BME280;40076;52.354;4.970;2022-10-31T08:34:10;102069.59;;;12.09;100.00
54172;BME280;40076;52.354;4.970;2022-10-31T08:36:35;102072.00;;;12.10;100.00
54172;BME280;40076;52.354;4.970;2022-10-31T08:39:01;102077.94;;;12.12;100.00
54172;BME280;40076;52.354;4.970;2022-10-31T08:41:27;102081.75;;;12.11;100.00
54172;BME280;40076;52.354;4.970;2022-10-31T08:43:52;102078.41;;;12.14;100.00
54172;BME280;40076;52.354;4.970;2022-10-31T08:46:17;102071.91;;;12.15;100.00
54172;BME280;40076;52.354;4.970;2022-10-31T08:48:43;102065.66;;;12.15;100.00
54172;BME280;40076;52.354;4.970;2022-10-31T08:51:09;102072.69;;;12.16;100.00
54172;BME280;40076;52.354;4.970;2022-10-31T08:53:35;102065.88;;;12.18;100.00
54172;BME280;40076;52.354;4.970;2022-10-31T08:56:00;102064.47;;;12.21;100.00
54172;BME280;40076;52.354;4.970;2022-10-31T08:58:26;102053.34;;;12.22;100.00
54172;BME280;40076;52.354;4.970;2022-10-31T09:00:53;102053.84;;;12.24;100.00
54172;BME280;40076;52.354;4.970;2022-10-31T09:03:24;102061.38;;;12.27;100.00
54172;BME280;40076;52.354;4.970;2022-10-31T09:05:53;102060.78;;;12.30;100.00
54172;BME280;40076;52.354;4.970;2022-10-31T09:08:19;102058.06;;;12.30;100.00
54172;BME280;40076;52.354;4.970;2022-10-31T09:10:45;102044.72;;;12.34;100.00
54172;BME280;40076;52.354;4.970;2022-10-31T09:13:16;102047.16;;;12.35;100.00
54172;BME280;40076;52.354;4.970;2022-10-31T09:15:43;102043.81;;;12.38;100.00
54172;BME280;40076;52.354;4.970;2022-10-31T09:18:11;102043.50;;;12.40;100.00
54172;BME280;40076;52.354;4.970;2022-10-31T09:20:39;102049.94;;;12.44;100.00
54172;BME280;40076;52.354;4.970;2022-10-31T09:23:08;102042.59;;;12.45;100.00
54172;BME280;40076;52.354;4.970;2022-10-31T09:25:35;102041.72;;;12.49;100.00
54172;BME280;40076;52.354;4.970;2022-10-31T09:28:02;102045.72;;;12.52;100.00
54172;BME280;40076;52.354;4.970;2022-10-31T09:30:29;102037.78;;;12.55;100.00
54172;BME280;40076;52.354;4.970;2022-10-31T09:33:00;102035.25;;;12.59;100.00
54172;BME280;40076;52.354;4.970;2022-10-31T09:35:25;102039.78;;;12.63;100.00
54172;BME280;40076;52.354;4.970;2022-10-31T09:37:59;102033.75;;;12.66;100.00
54172;BME280;40076;52.354;4.970;2022-10-31T09:40:31;102029.03;;;12.72;100.00
54172;BME280;40076;52.354;4.970;2022-10-31T09:43:25;102017.25;;;12.76;100.00
54172;BME280;40076;52.354;4.970;2022-10-31T09:46:16;102010.13;;;12.81;100.00
54172;BME280;40076;52.354;4.970;2022-10-31T09:51:43;102009.72;;;12.87;100.00
54172;BME280;40076;52.354;4.970;2022-10-31T09:54:32;102014.22;;;12.92;100.00
54172;BME280;40076;52.354;4.970;2022-10-31T09:56:59;102010.41;;;12.93;100.00
54172;BME280;40076;52.354;4.970;2022-10-31T09:59:38;102010.59;;;12.96;100.00
54172;BME280;40076;52.354;4.970;2022-10-31T10:02:13;102008.88;;;13.00;100.00
54172;BME280;40076;52.354;4.970;2022-10-31T10:10:12;102000.97;;;13.12;100.00
54172;BME280;40076;52.354;4.970;2022-10-31T10:15:41;101996.75;;;13.20;100.00
54172;BME280;40076;52.354;4.970;2022-10-31T10:23:35;101995.13;;;13.33;100.00
54172;BME280;40076;52.354;4.970;2022-10-31T10:26:15;101989.56;;;13.38;100.00
54172;BME280;40076;52.354;4.970;2022-10-31T10:28:44;101987.84;;;13.42;100.00
54172;BME280;40076;52.354;4.970;2022-10-31T10:31:14;101976.53;;;13.48;100.00
54172;BME280;40076;52.354;4.970;2022-10-31T10:34:12;101972.25;;;13.56;100.00
54172;BME280;40076;52.354;4.970;2022-10-31T10:36:45;101966.38;;;13.63;100.00
54172;BME280;40076;52.354;4.970;2022-10-31T10:39:20;101965.13;;;13.69;100.00
54172;BME280;40076;52.354;4.970;2022-10-31T10:41:49;101962.28;;;13.74;100.00
54172;BME280;40076;52.354;4.970;2022-10-31T10:44:37;101959.91;;;13.81;100.00
54172;BME280;40076;52.354;4.970;2022-10-31T10:47:22;101952.44;;;13.86;100.00
54172;BME280;40076;52.354;4.970;2022-10-31T10:50:25;101948.97;;;13.95;100.00
54172;BME280;40076;52.354;4.970;2022-10-31T10:56:13;101930.75;;;14.04;100.00
54172;BME280;40076;52.354;4.970;2022-10-31T10:58:41;101931.72;;;14.08;100.00
54172;BME280;40076;52.354;4.970;2022-10-31T11:01:14;101918.28;;;14.11;100.00
54172;BME280;40076;52.354;4.970;2022-10-31T11:03:40;101906.66;;;14.19;100.00
54172;BME280;40076;52.354;4.970;2022-10-31T11:06:17;101904.91;;;14.23;100.00
54172;BME280;40076;52.354;4.970;2022-10-31T11:08:42;101894.69;;;14.29;100.00
54172;BME280;40076;52.354;4.970;2022-10-31T11:11:19;101886.69;;;14.33;100.00
54172;BME280;40076;52.354;4.970;2022-10-31T11:13:54;101876.50;;;14.38;100.00
54172;BME280;40076;52.354;4.970;2022-10-31T11:16:30;101880.66;;;14.44;100.00
54172;BME280;40076;52.354;4.970;2022-10-31T11:21:36;101870.41;;;14.58;100.00
54172;BME280;40076;52.354;4.970;2022-10-31T11:24:23;101869.16;;;14.64;100.00
54172;BME280;40076;52.354;4.970;2022-10-31T11:26:51;101862.25;;;14.67;100.00
54172;BME280;40076;52.354;4.970;2022-10-31T11:29:21;101867.84;;;14.71;100.00
54172;BME280;40076;52.354;4.970;2022-10-31T11:31:55;101853.28;;;14.75;100.00
54172;BME280;40076;52.354;4.970;2022-10-31T11:34:36;101862.88;;;14.81;100.00
54172;BME280;40076;52.354;4.970;2022-10-31T11:37:13;101868.47;;;14.85;100.00
54172;BME280;40076;52.354;4.970;2022-10-31T11:39:43;101867.81;;;14.88;100.00
54172;BME280;40076;52.354;4.970;2022-10-31T11:42:09;101864.16;;;14.92;100.00
54172;BME280;40076;52.354;4.970;2022-10-31T11:44:35;101862.38;;;14.96;100.00
54172;BME280;40076;52.354;4.970;2022-10-31T11:47:03;101860.94;;;14.99;100.00
54172;BME280;40076;52.354;4.970;2022-10-31T11:49:33;101854.19;;;15.05;100.00
54172;BME280;40076;52.354;4.970;2022-10-31T11:52:23;101844.41;;;15.13;100.00
54172;BME280;40076;52.354;4.970;2022-10-31T11:54:59;101847.28;;;15.16;100.00
54172;BME280;40076;52.354;4.970;2022-10-31T11:57:29;101843.25;;;15.22;100.00
54172;BME280;40076;52.354;4.970;2022-10-31T11:59:57;101837.63;;;15.27;100.00
54172;BME280;40076;52.354;4.970;2022-10-31T12:02:23;101829.28;;;15.32;100.00
54172;BME280;40076;52.354;4.970;2022-10-31T12:07:22;101814.16;;;15.43;100.00
54172;BME280;40076;52.354;4.970;2022-10-31T12:09:47;101805.03;;;15.48;100.00
54172;BME280;40076;52.354;4.970;2022-10-31T12:12:32;101803.25;;;15.52;100.00
54172;BME280;40076;52.354;4.970;2022-10-31T12:15:34;101789.47;;;15.57;100.00
54172;BME280;40076;52.354;4.970;2022-10-31T12:21:14;101785.44;;;15.63;100.00
54172;BME280;40076;52.354;4.970;2022-10-31T12:23:46;101779.31;;;15.66;100.00
54172;BME280;40076;52.354;4.970;2022-10-31T12:43:20;101747.09;;;15.89;100.00
54172;BME280;40076;52.354;4.970;2022-10-31T12:45:53;101744.53;;;15.93;100.00
54172;BME280;40076;52.354;4.970;2022-10-31T12:49:00;101742.38;;;15.98;100.00
54172;BME280;40076;52.354;4.970;2022-10-31T12:54:33;101732.88;;;16.04;100.00
54172;BME280;40076;52.354;4.970;2022-10-31T12:59:48;101717.91;;;16.10;100.00
54172;BME280;40076;52.354;4.970;2022-10-31T13:02:28;101706.19;;;16.10;100.00
54172;BME280;40076;52.354;4.970;2022-10-31T13:04:58;101693.34;;;16.10;100.00
54172;BME280;40076;52.354;4.970;2022-10-31T13:07:32;101680.88;;;16.09;100.00
54172;BME280;40076;52.354;4.970;2022-10-31T13:12:40;101669.50;;;16.07;100.00
54172;BME280;40076;52.354;4.970;2022-10-31T13:15:18;101676.09;;;16.06;100.00
54172;BME280;40076;52.354;4.970;2022-10-31T13:17:48;101658.59;;;16.07;100.00
54172;BME280;40076;52.354;4.970;2022-10-31T13:20:34;101653.16;;;16.07;100.00
54172;BME280;40076;52.354;4.970;2022-10-31T13:23:26;101641.91;;;16.09;100.00
54172;BME280;40076;52.354;4.970;2022-10-31T13:25:54;101642.72;;;16.09;100.00
54172;BME280;40076;52.354;4.970;2022-10-31T13:29:15;101636.09;;;16.10;100.00
54172;BME280;40076;52.354;4.970;2022-10-31T13:31:15;101627.13;;;16.10;100.00
54172;BME280;40076;52.354;4.970;2022-10-31T13:33:46;101626.69;;;16.08;100.00
54172;BME280;40076;52.354;4.970;2022-10-31T13:36:35;101629.09;;;16.09;100.00
54172;BME280;40076;52.354;4.970;2022-10-31T13:39:30;101622.03;;;16.08;100.00
54172;BME280;40076;52.354;4.970;2022-10-31T13:42:08;101626.69;;;16.08;100.00
54172;BME280;40076;52.354;4.970;2022-10-31T13:44:35;101620.44;;;16.07;100.00
54172;BME280;40076;52.354;4.970;2022-10-31T13:47:21;101617.25;;;16.05;100.00
54172;BME280;40076;52.354;4.970;2022-10-31T13:49:47;101602.81;;;16.05;100.00
54172;BME280;40076;52.354;4.970;2022-10-31T13:52:15;101602.81;;;16.05;100.00
54172;BME280;40076;52.354;4.970;2022-10-31T13:54:47;101596.56;;;16.04;100.00
54172;BME280;40076;52.354;4.970;2022-10-31T13:57:27;101585.19;;;16.02;100.00
54172;BME280;40076;52.354;4.970;2022-10-31T14:00:05;101587.91;;;16.02;100.00
54172;BME280;40076;52.354;4.970;2022-10-31T14:02:33;101586.00;;;16.03;100.00
54172;BME280;40076;52.354;4.970;2022-10-31T14:05:05;101580.91;;;16.01;100.00
54172;BME280;40076;52.354;4.970;2022-10-31T14:07:32;101584.41;;;16.02;100.00
54172;BME280;40076;52.354;4.970;2022-10-31T14:10:04;101575.78;;;16.00;100.00